Time;durP1;ratioP1;P1;durP2;ratioP2;P2;SDS_P1;SDS_P2;PMS_P1;PMS_P2;Temp;Humidity;BMP_temperature;BMP_pressure;BME280_temperature;BME280_humidity;BME280_pressure;Samples;Min_cycle;Max_cycle;Signal;HPM_P1;HPM_P2
2022/08/26 00:02:25;;;;;;;18.20;9.52;;;23.10;99.90;;;;;;5038376;28;20208;-66
2022/08/26 00:04:50;;;;;;;18.80;8.65;;;23.10;99.90;;;;;;5035199;28;20211;-65
2022/08/26 00:07:16;;;;;;;16.88;9.13;;;23.10;99.90;;;;;;5027012;28;20205;-67
2022/08/26 00:09:41;;;;;;;14.85;9.27;;;23.10;99.90;;;;;;5034997;28;20172;-67
2022/08/26 00:12:08;;;;;;;20.38;10.82;;;23.10;99.90;;;;;;5036547;28;20191;-67
2022/08/26 00:14:34;;;;;;;16.98;10.27;;;23.10;99.90;;;;;;5030760;28;20209;-66
2022/08/26 00:16:59;;;;;;;20.92;9.60;;;23.10;99.90;;;;;;5029717;28;20570;-67
2022/08/26 00:19:25;;;;;;;17.30;8.75;;;23.10;99.90;;;;;;5035659;28;20204;-67
2022/08/26 00:21:51;;;;;;;21.77;9.93;;;23.10;99.90;;;;;;5035271;28;20199;-66
2022/08/26 00:24:18;;;;;;;15.05;9.07;;;23.10;99.90;;;;;;5029971;28;20229;-67
2022/08/26 00:26:44;;;;;;;18.95;8.95;;;23.10;99.90;;;;;;5035988;28;20735;-66
2022/08/26 00:29:11;;;;;;;17.40;8.82;;;23.10;99.90;;;;;;5032465;28;20792;-66
2022/08/26 00:31:36;;;;;;;17.42;9.40;;;23.00;99.90;;;;;;5033903;28;20295;-66
2022/08/26 00:34:02;;;;;;;17.02;9.15;;;23.00;99.90;;;;;;5027555;28;20275;-67
2022/08/26 00:36:27;;;;;;;21.70;11.23;;;23.00;99.90;;;;;;5037605;28;20341;-66
2022/08/26 00:38:53;;;;;;;18.10;9.27;;;23.10;99.90;;;;;;5034771;28;20302;-67
2022/08/26 00:41:19;;;;;;;19.58;10.25;;;23.00;99.90;;;;;;5026526;28;20228;-68
2022/08/26 00:43:45;;;;;;;16.90;11.05;;;23.00;99.90;;;;;;5035970;28;20290;-68
2022/08/26 00:46:20;;;;;;;15.15;8.82;;;23.00;99.90;;;;;;5032700;28;20216;-68
2022/08/26 00:48:49;;;;;;;14.55;9.85;;;23.00;99.90;;;;;;5030244;28;20183;-67
2022/08/26 00:51:24;;;;;;;20.60;9.88;;;23.00;99.90;;;;;;5024039;28;20177;-67
2022/08/26 00:53:55;;;;;;;18.23;9.55;;;22.90;99.90;;;;;;5030853;28;20207;-68
2022/08/26 00:56:32;;;;;;;17.45;9.38;;;22.90;99.90;;;;;;5029286;28;20306;-66
2022/08/26 00:59:01;;;;;;;17.67;9.70;;;22.90;99.90;;;;;;5026238;28;20291;-68
2022/08/26 01:01:27;;;;;;;14.63;9.57;;;22.90;99.90;;;;;;5036794;28;20216;-67
2022/08/26 01:03:54;;;;;;;18.50;10.27;;;23.00;99.90;;;;;;5036020;28;20234;-67
2022/08/26 01:06:22;;;;;;;14.45;9.13;;;22.90;99.90;;;;;;5028016;28;20204;-67
2022/08/26 01:08:47;;;;;;;18.90;9.48;;;22.90;99.90;;;;;;5028839;28;20302;-67
2022/08/26 01:11:14;;;;;;;22.35;9.20;;;22.90;99.90;;;;;;5037040;28;20291;-68
2022/08/26 01:13:41;;;;;;;19.70;10.30;;;22.90;99.90;;;;;;5032681;28;20641;-67
2022/08/26 01:16:11;;;;;;;22.08;9.57;;;22.90;99.90;;;;;;5024613;28;20212;-68
2022/08/26 01:18:39;;;;;;;17.38;9.68;;;22.80;99.90;;;;;;5032942;28;20231;-67
2022/08/26 01:21:31;;;;;;;24.20;10.07;;;22.70;99.90;;;;;;5015565;28;20291;-67
2022/08/26 01:23:58;;;;;;;16.02;9.57;;;22.70;99.90;;;;;;5024581;28;20236;-68
2022/08/26 01:26:31;;;;;;;19.63;9.98;;;22.70;99.90;;;;;;5024833;28;20645;-68
2022/08/26 01:29:00;;;;;;;22.23;9.88;;;22.70;99.90;;;;;;5030507;28;20197;-67
2022/08/26 01:31:32;;;;;;;17.10;9.90;;;22.60;99.90;;;;;;5028058;28;20212;-68
2022/08/26 01:34:10;;;;;;;21.30;10.15;;;22.70;99.90;;;;;;5024003;28;20226;-67
2022/08/26 01:36:37;;;;;;;17.15;8.98;;;22.70;99.90;;;;;;5030337;28;20204;-67
2022/08/26 01:39:04;;;;;;;16.85;9.15;;;22.70;99.90;;;;;;5027998;28;20208;-68
2022/08/26 01:41:31;;;;;;;18.92;9.65;;;22.70;99.90;;;;;;5031826;28;20239;-66
2022/08/26 01:43:58;;;;;;;15.98;9.60;;;22.80;99.90;;;;;;5039863;28;20298;-67
2022/08/26 01:46:26;;;;;;;14.80;8.73;;;22.70;99.90;;;;;;5039247;28;20216;-67
2022/08/26 01:48:54;;;;;;;18.40;9.85;;;22.70;99.90;;;;;;5027656;28;20179;-67
2022/08/26 01:51:22;;;;;;;18.73;10.10;;;22.80;99.90;;;;;;5022430;28;20190;-68
2022/08/26 01:53:48;;;;;;;18.70;10.02;;;22.80;99.90;;;;;;5026334;28;20694;-67
2022/08/26 01:56:14;;;;;;;16.48;10.00;;;22.70;99.90;;;;;;5026639;28;20299;-68
2022/08/26 01:58:57;;;;;;;18.17;9.98;;;22.70;99.90;;;;;;5024308;28;20596;-68
2022/08/26 02:01:24;;;;;;;15.43;10.02;;;22.70;99.90;;;;;;5027490;28;20303;-68
2022/08/26 02:04:18;;;;;;;17.23;10.13;;;22.70;99.90;;;;;;5028630;28;20191;-67
2022/08/26 02:06:45;;;;;;;15.02;9.95;;;22.70;99.90;;;;;;5025330;28;20275;-68
2022/08/26 02:09:12;;;;;;;19.38;9.48;;;22.70;99.90;;;;;;5024450;28;20184;-66
2022/08/26 02:11:37;;;;;;;13.75;9.32;;;22.70;99.90;;;;;;5027856;28;20213;-67
2022/08/26 02:14:28;;;;;;;17.63;10.55;;;22.60;99.90;;;;;;5029001;28;20215;-67
2022/08/26 02:16:55;;;;;;;14.68;9.85;;;22.60;99.90;;;;;;5015472;28;20701;-67
2022/08/26 02:19:25;;;;;;;20.40;10.77;;;22.50;99.90;;;;;;5025903;28;20593;-66
2022/08/26 02:21:52;;;;;;;18.58;9.90;;;22.50;99.90;;;;;;5025285;28;20257;-67
2022/08/26 02:24:24;;;;;;;19.45;10.35;;;22.40;99.90;;;;;;5023137;28;20177;-68
2022/08/26 02:26:50;;;;;;;17.60;10.77;;;22.40;99.90;;;;;;5026570;28;20597;-67
2022/08/26 02:29:34;;;;;;;15.02;9.68;;;22.40;99.90;;;;;;5027223;28;20250;-67
2022/08/26 02:32:00;;;;;;;17.55;10.27;;;22.40;99.90;;;;;;5025357;28;20692;-67
2022/08/26 02:34:31;;;;;;;18.92;10.45;;;22.40;99.90;;;;;;5023739;28;20207;-68
2022/08/26 02:36:59;;;;;;;18.48;10.32;;;22.30;99.90;;;;;;5029069;28;20207;-68
2022/08/26 02:39:25;;;;;;;21.98;11.27;;;22.30;99.90;;;;;;5024456;28;20180;-67
2022/08/26 02:41:50;;;;;;;17.35;10.68;;;22.30;99.90;;;;;;5024081;28;20350;-67
2022/08/26 02:44:16;;;;;;;19.38;10.60;;;22.30;99.90;;;;;;5026067;28;20215;-68
2022/08/26 02:46:42;;;;;;;16.65;10.70;;;22.30;99.90;;;;;;5029611;28;20214;-68
2022/08/26 02:49:08;;;;;;;22.42;11.07;;;22.30;99.90;;;;;;5024091;28;20259;-68
2022/08/26 02:51:33;;;;;;;21.52;11.10;;;22.30;99.90;;;;;;5025201;28;20172;-68
2022/08/26 02:53:59;;;;;;;17.75;11.75;;;22.30;99.90;;;;;;5028755;28;20595;-68
2022/08/26 02:56:25;;;;;;;23.27;10.80;;;22.30;99.90;;;;;;5024237;28;20694;-68
2022/08/26 02:58:50;;;;;;;20.73;10.40;;;22.30;99.90;;;;;;5024008;28;20227;-67
2022/08/26 03:01:31;;;;;;;19.13;10.38;;;22.30;99.90;;;;;;5022357;28;20648;-68
2022/08/26 03:03:57;;;;;;;21.42;10.90;;;22.30;99.90;;;;;;5026135;28;20176;-67
2022/08/26 03:06:23;;;;;;;22.95;11.30;;;22.30;99.90;;;;;;5022546;28;20203;-67
2022/08/26 03:08:50;;;;;;;20.48;11.55;;;22.40;99.90;;;;;;5022608;28;20219;-67
2022/08/26 03:11:17;;;;;;;22.30;11.27;;;22.40;99.90;;;;;;5028889;28;20212;-67
2022/08/26 03:13:43;;;;;;;16.33;10.02;;;22.40;99.90;;;;;;5025803;28;20204;-67
2022/08/26 03:16:09;;;;;;;28.63;15.90;;;22.40;99.90;;;;;;5023419;28;20302;-67
2022/08/26 03:18:35;;;;;;;18.23;10.68;;;22.40;99.90;;;;;;5025181;28;20314;-67
2022/08/26 03:21:13;;;;;;;18.00;10.43;;;22.40;99.90;;;;;;5027199;28;20223;-67
2022/08/26 03:23:40;;;;;;;20.05;11.65;;;22.40;99.90;;;;;;5023233;28;20759;-67
2022/08/26 03:26:07;;;;;;;20.20;11.23;;;22.30;99.90;;;;;;5022722;28;20212;-68
2022/08/26 03:28:33;;;;;;;21.17;11.15;;;22.20;99.90;;;;;;5026889;28;20208;-67
2022/08/26 03:30:58;;;;;;;17.75;11.18;;;22.20;99.90;;;;;;5026040;28;20216;-66
2022/08/26 03:33:25;;;;;;;18.70;10.85;;;22.20;99.90;;;;;;5020731;28;20239;-67
2022/08/26 03:35:51;;;;;;;21.48;11.68;;;22.20;99.90;;;;;;5028885;28;20219;-67
2022/08/26 03:38:23;;;;;;;19.48;11.32;;;22.10;99.90;;;;;;5025500;28;20291;-66
2022/08/26 03:40:52;;;;;;;20.30;12.82;;;22.20;99.90;;;;;;5024420;28;20270;-67
2022/08/26 03:43:18;;;;;;;17.05;10.85;;;22.10;99.90;;;;;;5022957;28;20580;-67
2022/08/26 03:45:44;;;;;;;21.85;12.43;;;22.10;99.90;;;;;;5027539;28;20203;-66
2022/08/26 03:48:10;;;;;;;21.42;12.07;;;22.20;99.90;;;;;;5026354;28;20257;-66
2022/08/26 03:50:36;;;;;;;25.17;11.38;;;22.10;99.90;;;;;;5021558;28;20590;-67
2022/08/26 03:53:03;;;;;;;26.23;12.30;;;22.10;99.90;;;;;;5025447;28;20238;-67
2022/08/26 03:55:30;;;;;;;21.83;12.07;;;22.20;99.90;;;;;;5023533;28;20247;-67
2022/08/26 03:57:57;;;;;;;18.98;11.32;;;22.20;99.90;;;;;;5024414;28;20194;-66
2022/08/26 04:00:22;;;;;;;22.95;11.27;;;22.20;99.90;;;;;;5019425;28;20203;-66
2022/08/26 04:02:49;;;;;;;20.73;11.38;;;22.20;99.90;;;;;;5027705;28;20283;-67
2022/08/26 04:05:17;;;;;;;21.20;12.40;;;22.20;99.90;;;;;;5024090;28;20223;-66
2022/08/26 04:07:43;;;;;;;18.50;11.27;;;22.20;99.90;;;;;;5022215;28;20328;-67
2022/08/26 04:10:11;;;;;;;20.20;12.50;;;22.10;99.90;;;;;;5025241;28;20215;-67
2022/08/26 04:12:38;;;;;;;21.35;11.60;;;22.20;99.90;;;;;;5025688;28;20254;-67
2022/08/26 04:15:06;;;;;;;20.77;10.80;;;22.10;99.90;;;;;;5023845;28;20585;-66
2022/08/26 04:17:31;;;;;;;24.55;11.50;;;22.20;99.90;;;;;;5020719;28;20221;-67
2022/08/26 04:19:57;;;;;;;14.45;11.02;;;22.20;99.90;;;;;;5027543;28;20220;-67
2022/08/26 04:22:22;;;;;;;18.35;11.60;;;22.30;99.90;;;;;;5025788;28;20705;-66
2022/08/26 04:24:48;;;;;;;24.20;12.40;;;22.30;99.90;;;;;;5023333;28;20660;-66
2022/08/26 04:27:13;;;;;;;22.63;11.57;;;22.40;99.90;;;;;;5034575;23;23916;-69
2022/08/26 04:29:40;;;;;;;24.80;12.32;;;22.40;99.90;;;;;;5017010;28;20251;-70
2022/08/26 04:32:07;;;;;;;22.13;12.65;;;22.40;99.90;;;;;;5020761;28;20205;-70
2022/08/26 04:34:33;;;;;;;23.45;15.23;;;22.40;99.90;;;;;;5016034;28;20275;-70
2022/08/26 04:36:59;;;;;;;21.60;13.63;;;22.40;99.90;;;;;;5024215;28;20216;-69
2022/08/26 04:39:26;;;;;;;24.60;14.18;;;22.30;99.90;;;;;;5042260;28;20970;-69
2022/08/26 04:41:53;;;;;;;19.08;12.95;;;22.30;99.90;;;;;;5043383;28;20215;-69
2022/08/26 04:44:20;;;;;;;22.50;12.10;;;22.20;99.90;;;;;;5035541;28;20204;-70
2022/08/26 04:46:46;;;;;;;20.85;12.98;;;22.30;99.90;;;;;;5039683;28;20304;-69
2022/08/26 04:49:12;;;;;;;22.52;12.50;;;22.40;99.90;;;;;;5043001;28;20291;-70
2022/08/26 04:51:38;;;;;;;22.30;11.95;;;22.40;99.90;;;;;;5041285;28;20180;-70
2022/08/26 04:54:05;;;;;;;23.80;13.77;;;22.50;99.90;;;;;;5042602;28;20219;-70
2022/08/26 04:56:39;;;;;;;21.52;11.55;;;22.50;99.90;;;;;;5040958;28;20339;-70
2022/08/26 04:59:07;;;;;;;16.63;11.80;;;22.50;99.90;;;;;;5043134;28;20811;-70
2022/08/26 05:01:34;;;;;;;26.00;14.20;;;22.70;99.90;;;;;;5038170;28;20250;-70
2022/08/26 05:04:00;;;;;;;20.33;11.50;;;22.90;99.90;;;;;;5043585;28;20207;-70
2022/08/26 05:06:26;;;;;;;26.65;12.65;;;23.20;99.90;;;;;;5040367;28;20255;-69
2022/08/26 05:08:53;;;;;;;22.27;11.80;;;23.50;99.90;;;;;;5036842;28;20728;-70
2022/08/26 05:11:19;;;;;;;21.10;11.77;;;23.90;99.90;;;;;;5043508;28;20208;-69
2022/08/26 05:13:45;;;;;;;23.73;12.55;;;24.10;99.90;;;;;;5042201;28;20575;-69
2022/08/26 05:16:13;;;;;;;22.52;11.02;;;24.70;99.90;;;;;;5042436;28;20208;-70
2022/08/26 05:18:41;;;;;;;15.30;11.05;;;24.90;99.90;;;;;;5037490;28;20206;-71
2022/08/26 05:21:07;;;;;;;20.83;11.52;;;24.90;99.90;;;;;;5043142;28;20203;-70
2022/08/26 05:23:36;;;;;;;19.48;10.88;;;25.20;99.90;;;;;;5040918;28;20214;-70
2022/08/26 05:26:06;;;;;;;24.80;10.75;;;25.50;99.90;;;;;;5040668;28;20200;-70
2022/08/26 05:28:32;;;;;;;24.73;13.50;;;25.70;99.90;;;;;;5040815;28;20227;-69
2022/08/26 05:30:57;;;;;;;19.98;12.38;;;25.90;99.90;;;;;;5043418;28;20206;-70
2022/08/26 05:33:23;;;;;;;20.63;12.32;;;25.60;99.90;;;;;;5039982;28;20184;-70
2022/08/26 05:35:49;;;;;;;22.55;10.75;;;25.30;99.90;;;;;;5039430;28;20215;-69
2022/08/26 05:38:17;;;;;;;30.33;13.13;;;25.20;99.90;;;;;;5042772;28;20249;-69
2022/08/26 05:40:49;;;;;;;30.00;13.48;;;25.00;99.90;;;;;;5041681;28;20254;-69
2022/08/26 05:43:15;;;;;;;21.67;12.15;;;24.90;99.90;;;;;;5040320;28;20208;-70
2022/08/26 05:45:44;;;;;;;19.65;10.57;;;25.10;99.90;;;;;;5040240;28;20186;-70
2022/08/26 05:48:09;;;;;;;16.83;11.93;;;25.60;99.90;;;;;;5042379;28;20207;-70
2022/08/26 05:50:43;;;;;;;21.17;11.60;;;25.50;99.90;;;;;;5041046;28;20266;-70
2022/08/26 05:53:11;;;;;;;21.50;12.25;;;25.60;99.90;;;;;;5040196;28;20738;-69
2022/08/26 05:55:44;;;;;;;22.38;11.93;;;25.80;99.90;;;;;;5039664;28;20296;-70
2022/08/26 05:58:11;;;;;;;20.63;11.07;;;26.10;99.90;;;;;;5041382;28;20295;-70
2022/08/26 06:00:37;;;;;;;16.33;10.68;;;26.90;99.90;;;;;;5039830;28;20200;-70
2022/08/26 06:03:03;;;;;;;20.17;10.98;;;27.60;99.90;;;;;;5042272;28;20207;-68
2022/08/26 06:05:28;;;;;;;18.45;10.00;;;28.20;99.90;;;;;;5037719;28;20258;-69
2022/08/26 06:10:58;;;;;;;19.75;10.20;;;29.80;99.90;;;;;;5039611;28;20593;-70
2022/08/26 06:13:25;;;;;;;22.38;10.60;;;30.00;99.90;;;;;;5038766;28;20239;-70
2022/08/26 06:15:52;;;;;;;19.38;10.20;;;30.70;99.90;;;;;;5042712;28;20188;-70
2022/08/26 06:18:21;;;;;;;23.15;10.38;;;31.10;99.90;;;;;;5039595;28;20749;-71
2022/08/26 06:20:47;;;;;;;20.00;10.07;;;30.80;99.90;;;;;;5037395;28;20216;-70
2022/08/26 06:26:00;;;;;;;16.92;9.00;;;32.10;99.90;;;;;;5040238;28;20288;-71
2022/08/26 06:28:26;;;;;;;19.27;9.45;;;31.70;99.90;;;;;;5040458;28;20666;-71
2022/08/26 06:30:53;;;;;;;18.80;10.00;;;32.40;99.90;;;;;;5041644;28;20661;-70
2022/08/26 06:33:20;;;;;;;18.63;9.27;;;31.70;99.90;;;;;;5039761;28;20238;-70
2022/08/26 06:35:46;;;;;;;18.75;9.80;;;32.30;99.90;;;;;;5036756;28;20270;-70
2022/08/26 06:38:12;;;;;;;18.33;9.55;;;32.90;99.90;;;;;;5041622;28;20341;-70
2022/08/26 06:40:51;;;;;;;20.05;9.15;;;32.60;99.90;;;;;;5039986;28;20234;-71
2022/08/26 06:43:19;;;;;;;22.63;9.35;;;33.40;99.90;;;;;;5039087;28;20334;-71
2022/08/26 06:45:46;;;;;;;21.30;9.55;;;33.20;99.90;;;;;;5030977;28;20172;-70
2022/08/26 06:48:13;;;;;;;18.05;9.30;;;33.70;99.90;;;;;;5039796;28;20190;-70
2022/08/26 06:50:40;;;;;;;16.35;8.32;;;33.40;99.90;;;;;;5040440;28;20254;-71
2022/08/26 06:53:06;;;;;;;16.90;9.45;;;33.50;99.90;;;;;;5039188;28;20588;-71
2022/08/26 06:55:37;;;;;;;21.05;8.98;;;33.40;99.90;;;;;;5033263;28;20224;-71
2022/08/26 06:58:03;;;;;;;16.65;8.60;;;33.00;99.90;;;;;;5037173;28;20226;-71
2022/08/26 07:00:31;;;;;;;19.38;9.57;;;32.80;99.90;;;;;;5038541;28;20282;-67
2022/08/26 07:02:56;;;;;;;21.77;8.90;;;33.00;99.90;;;;;;5040550;28;20257;-70
2022/08/26 07:05:25;;;;;;;17.95;8.20;;;33.30;99.90;;;;;;5038369;28;20215;-68
2022/08/26 07:07:51;;;;;;;21.23;8.88;;;33.20;99.90;;;;;;5041426;28;20207;-69
2022/08/26 07:10:17;;;;;;;18.40;8.25;;;33.20;99.90;;;;;;5032826;28;20211;-69
2022/08/26 07:12:43;;;;;;;19.77;9.15;;;33.60;99.90;;;;;;5039150;28;20218;-69
2022/08/26 07:15:09;;;;;;;15.82;8.60;;;33.20;99.90;;;;;;5041345;28;20236;-69
2022/08/26 07:17:35;;;;;;;26.65;9.88;;;33.20;99.90;;;;;;5037906;28;20219;-69
2022/08/26 07:20:02;;;;;;;22.88;9.20;;;33.50;99.90;;;;;;5040495;28;20680;-71
2022/08/26 07:22:28;;;;;;;19.60;8.77;;;33.60;99.90;;;;;;5038864;28;20204;-68
2022/08/26 07:24:53;;;;;;;20.08;8.98;;;34.90;99.90;;;;;;5041964;28;20182;-70
2022/08/26 07:27:19;;;;;;;21.95;9.63;;;35.20;99.90;;;;;;5038391;28;20215;-69
2022/08/26 07:29:45;;;;;;;21.10;8.45;;;35.90;99.90;;;;;;5038925;28;20277;-69
2022/08/26 07:32:13;;;;;;;23.15;8.43;;;35.70;99.90;;;;;;5038931;28;20211;-70
2022/08/26 07:34:39;;;;;;;20.27;8.75;;;36.00;99.90;;;;;;5035798;28;20212;-70
2022/08/26 07:37:05;;;;;;;18.15;8.27;;;36.10;99.90;;;;;;5040667;28;20207;-70
2022/08/26 07:39:31;;;;;;;22.95;9.75;;;36.40;99.90;;;;;;5038278;28;20183;-68
2022/08/26 07:41:57;;;;;;;17.63;8.77;;;36.80;99.90;;;;;;5037036;28;20219;-71
2022/08/26 07:44:23;;;;;;;19.67;8.55;;;37.10;99.90;;;;;;5038038;28;20211;-70
2022/08/26 07:46:49;;;;;;;16.48;8.43;;;36.80;99.90;;;;;;5039578;28;20203;-71
2022/08/26 07:49:16;;;;;;;22.88;8.75;;;36.30;99.90;;;;;;5039242;28;20202;-71
2022/08/26 07:51:42;;;;;;;19.02;8.48;;;36.60;99.90;;;;;;5038103;28;20561;-70
2022/08/26 07:54:08;;;;;;;22.02;8.38;;;37.60;99.90;;;;;;5042056;28;20258;-70
2022/08/26 07:56:34;;;;;;;19.63;8.30;;;36.90;99.90;;;;;;5037987;28;20218;-70
2022/08/26 07:59:00;;;;;;;21.42;9.82;;;37.10;99.90;;;;;;5040664;28;20207;-70
2022/08/26 08:01:26;;;;;;;25.80;12.75;;;37.40;99.90;;;;;;5037761;28;20631;-70
2022/08/26 08:03:53;;;;;;;18.15;8.20;;;37.70;99.90;;;;;;5039767;28;20176;-70
2022/08/26 08:06:23;;;;;;;21.30;8.95;;;37.50;99.90;;;;;;5039307;28;20218;-69
2022/08/26 08:08:50;;;;;;;17.38;7.55;;;37.80;99.90;;;;;;5037019;28;20215;-69
2022/08/26 08:11:16;;;;;;;15.55;8.20;;;37.90;99.90;;;;;;5042968;28;20206;-70
2022/08/26 08:13:41;;;;;;;20.92;8.55;;;37.30;99.90;;;;;;5040223;28;20208;-69
2022/08/26 08:16:07;;;;;;;19.60;7.97;;;37.20;99.90;;;;;;5043243;28;20203;-69
2022/08/26 08:18:33;;;;;;;27.65;10.00;;;35.20;99.90;;;;;;5039789;28;20230;-68
2022/08/26 08:21:02;;;;;;;21.25;8.10;;;34.80;99.90;;;;;;5044138;28;20215;-69
2022/08/26 08:23:29;;;;;;;17.85;8.70;;;34.10;99.90;;;;;;5039746;28;20746;-68
2022/08/26 08:26:03;;;;;;;25.77;8.38;;;34.10;99.90;;;;;;5041372;28;20577;-68
2022/08/26 08:28:28;;;;;;;21.73;8.15;;;34.60;99.90;;;;;;5042094;28;20226;-69
2022/08/26 08:30:55;;;;;;;18.88;8.18;;;34.90;99.90;;;;;;5044039;28;20199;-70
2022/08/26 08:33:21;;;;;;;19.23;8.70;;;35.30;99.90;;;;;;5040774;28;20176;-70
2022/08/26 08:35:48;;;;;;;18.63;7.70;;;36.00;99.90;;;;;;5039953;28;20222;-70
2022/08/26 08:38:13;;;;;;;16.45;7.78;;;35.10;99.90;;;;;;5042631;28;20298;-70
2022/08/26 08:40:41;;;;;;;20.40;8.43;;;35.70;99.90;;;;;;5042301;28;20784;-70
2022/08/26 08:43:12;;;;;;;21.20;7.35;;;35.30;99.90;;;;;;5043031;28;20602;-69
2022/08/26 08:45:51;;;;;;;17.67;7.38;;;35.80;99.90;;;;;;5040020;28;20645;-70
2022/08/26 08:48:26;;;;;;;15.07;7.20;;;35.60;99.90;;;;;;5040600;28;20721;-70
2022/08/26 08:50:55;;;;;;;17.88;7.15;;;35.80;99.90;;;;;;5044250;28;20284;-70
2022/08/26 08:53:40;;;;;;;19.90;7.60;;;35.80;99.90;;;;;;5040819;28;20210;-69
2022/08/26 08:56:14;;;;;;;19.00;7.47;;;34.80;99.90;;;;;;5044976;28;20583;-70
2022/08/26 08:58:50;;;;;;;21.60;8.02;;;34.50;99.90;;;;;;5041891;28;20207;-70
2022/08/26 09:01:29;;;;;;;22.10;7.43;;;34.50;99.90;;;;;;5044727;28;20218;-71
2022/08/26 09:03:58;;;;;;;18.95;7.60;;;34.10;99.90;;;;;;5043355;28;20179;-71
2022/08/26 09:06:24;;;;;;;19.88;7.28;;;33.40;99.90;;;;;;5039765;28;20184;-71
2022/08/26 09:08:50;;;;;;;18.92;7.60;;;32.70;99.90;;;;;;5040217;28;20224;-69
2022/08/26 09:11:17;;;;;;;19.52;6.53;;;32.60;99.90;;;;;;5044015;28;20226;-69
2022/08/26 09:13:48;;;;;;;18.63;8.00;;;33.20;99.90;;;;;;5041667;28;20283;-70
2022/08/26 09:16:32;;;;;;;18.70;7.20;;;32.90;99.90;;;;;;5042132;28;20273;-70
2022/08/26 09:19:24;;;;;;;28.55;6.88;;;32.30;99.90;;;;;;5032828;28;20216;-69
2022/08/26 09:21:58;;;;;;;22.80;7.10;;;32.10;99.90;;;;;;5039395;28;20227;-69
2022/08/26 09:24:24;;;;;;;19.75;7.35;;;32.90;99.90;;;;;;5040603;28;20177;-69
2022/08/26 09:26:51;;;;;;;21.20;7.60;;;32.70;99.90;;;;;;5037003;28;20243;-69
2022/08/26 09:29:34;;;;;;;19.90;7.45;;;32.70;99.90;;;;;;5041131;28;20878;-70
2022/08/26 09:32:23;;;;;;;20.80;7.57;;;32.30;99.90;;;;;;5043732;28;20211;-70
2022/08/26 09:35:06;;;;;;;26.42;8.27;;;32.00;99.90;;;;;;5038058;28;20210;-70
2022/08/26 09:37:44;;;;;;;24.67;7.53;;;32.10;99.90;;;;;;5038042;28;21032;-71
2022/08/26 09:40:36;;;;;;;18.50;7.72;;;31.80;99.90;;;;;;5037539;28;20211;-70
2022/08/26 09:43:10;;;;;;;25.67;7.38;;;31.50;99.90;;;;;;5040175;28;20207;-70
2022/08/26 09:45:37;;;;;;;20.90;7.20;;;31.00;99.90;;;;;;5037227;28;20222;-71
2022/08/26 09:48:03;;;;;;;26.67;7.78;;;31.00;99.90;;;;;;5042290;28;20424;-69
2022/08/26 09:50:30;;;;;;;20.58;7.80;;;31.30;99.90;;;;;;5040017;28;20811;-69
2022/08/26 09:53:10;;;;;;;22.05;8.25;;;31.20;99.90;;;;;;5040034;28;20228;-70
2022/08/26 09:55:38;;;;;;;20.88;7.75;;;31.40;99.90;;;;;;5039884;28;20231;-70
2022/08/26 09:58:04;;;;;;;29.98;7.75;;;31.40;99.90;;;;;;5042713;28;20235;-70
2022/08/26 10:00:37;;;;;;;21.15;7.50;;;31.30;99.90;;;;;;5038464;28;20665;-70
2022/08/26 10:03:07;;;;;;;19.20;7.97;;;31.80;99.90;;;;;;5042856;28;20594;-70
2022/08/26 10:05:55;;;;;;;23.00;7.18;;;31.90;99.90;;;;;;5038660;28;20205;-70
2022/08/26 10:08:26;;;;;;;22.15;7.20;;;32.00;99.90;;;;;;5039102;28;20212;-69
2022/08/26 10:10:54;;;;;;;24.35;7.75;;;31.80;99.90;;;;;;5036038;28;20208;-69
2022/08/26 10:13:42;;;;;;;23.27;7.82;;;31.50;99.90;;;;;;5040151;28;20218;-69
2022/08/26 10:16:16;;;;;;;21.45;7.00;;;31.70;99.90;;;;;;5039460;28;20214;-69
2022/08/26 10:18:54;;;;;;;23.98;8.63;;;31.70;99.90;;;;;;5038760;28;20250;-69
2022/08/26 10:21:34;;;;;;;22.67;7.95;;;32.10;99.90;;;;;;5037389;28;20210;-69
2022/08/26 10:24:02;;;;;;;28.25;8.00;;;32.20;99.90;;;;;;5036413;28;20207;-69
2022/08/26 10:26:33;;;;;;;29.50;8.52;;;31.50;99.90;;;;;;5038681;28;20204;-68
2022/08/26 10:29:13;;;;;;;23.63;7.47;;;31.80;99.90;;;;;;5050471;23;20220;-70
2022/08/26 10:31:58;;;;;;;21.65;8.38;;;31.80;99.90;;;;;;4999671;28;20205;-71
2022/08/26 10:34:23;;;;;;;22.90;7.68;;;32.10;99.90;;;;;;4997363;28;20239;-70
2022/08/26 10:37:03;;;;;;;20.20;7.80;;;31.80;99.90;;;;;;4995894;28;20209;-71
2022/08/26 10:39:35;;;;;;;28.35;9.35;;;31.80;99.90;;;;;;4999515;28;20291;-71
2022/08/26 10:42:12;;;;;;;20.77;8.15;;;31.80;99.90;;;;;;5001705;28;20216;-71
2022/08/26 10:44:40;;;;;;;25.67;8.18;;;31.10;99.90;;;;;;4999367;28;20289;-71
2022/08/26 10:47:17;;;;;;;24.92;8.60;;;31.00;99.90;;;;;;5002045;28;20212;-71
2022/08/26 10:49:46;;;;;;;25.48;8.77;;;31.00;99.90;;;;;;5000665;28;20621;-71
2022/08/26 10:52:55;;;;;;;25.95;8.65;;;30.80;99.90;;;;;;4999603;28;20209;-71
2022/08/26 10:55:30;;;;;;;24.13;8.38;;;30.80;99.90;;;;;;5001752;28;20223;-70
2022/08/26 10:58:16;;;;;;;28.55;8.85;;;30.80;99.90;;;;;;5002387;28;20180;-70
2022/08/26 11:03:44;;;;;;;23.60;7.90;;;30.60;99.90;;;;;;4999786;28;20172;-70
2022/08/26 11:06:30;;;;;;;21.73;8.80;;;30.70;99.90;;;;;;4997959;28;20716;-70
2022/08/26 11:09:02;;;;;;;26.10;7.85;;;30.80;99.90;;;;;;4980099;28;20746;-70
2022/08/26 11:11:40;;;;;;;20.50;8.02;;;31.10;99.90;;;;;;4980882;28;20220;-71
2022/08/26 11:14:07;;;;;;;28.58;9.10;;;31.60;99.90;;;;;;4992746;28;20304;-70
2022/08/26 11:16:38;;;;;;;20.27;7.82;;;31.50;99.90;;;;;;4999778;28;20209;-71
2022/08/26 11:19:05;;;;;;;21.92;8.40;;;31.30;99.90;;;;;;4994600;28;20218;-71
2022/08/26 11:21:42;;;;;;;25.45;8.32;;;31.00;99.90;;;;;;4999589;28;20285;-70
2022/08/26 11:24:08;;;;;;;24.75;8.23;;;30.40;99.90;;;;;;5001506;28;20197;-71
2022/08/26 11:26:35;;;;;;;22.00;8.20;;;30.30;99.90;;;;;;4998877;28;20216;-70
2022/08/26 11:29:01;;;;;;;19.85;8.48;;;30.30;99.90;;;;;;5001086;28;20208;-70
2022/08/26 11:31:29;;;;;;;20.20;8.70;;;30.40;99.90;;;;;;4999073;28;20630;-70
2022/08/26 11:33:58;;;;;;;22.10;8.63;;;30.20;99.90;;;;;;5000210;28;20181;-70
2022/08/26 11:36:32;;;;;;;22.50;7.93;;;30.20;99.90;;;;;;4998937;28;20196;-70
2022/08/26 11:38:59;;;;;;;21.27;8.45;;;30.20;99.90;;;;;;5001791;28;20249;-71
2022/08/26 11:41:28;;;;;;;24.25;9.07;;;30.30;99.90;;;;;;4998525;28;20251;-70
2022/08/26 11:43:56;;;;;;;14.95;5.78;;;30.20;99.90;;;;;;4999051;28;20360;-70
2022/08/26 11:46:29;;;;;;;19.27;4.53;;;30.10;99.90;;;;;;5004482;28;20208;-71
2022/08/26 11:49:04;;;;;;;10.55;4.55;;;29.50;99.90;;;;;;5003769;28;20223;-74
2022/08/26 11:51:30;;;;;;;8.07;3.70;;;29.20;99.90;;;;;;4984196;28;20667;-71
2022/08/26 11:54:14;;;;;;;11.02;3.60;;;28.50;99.90;;;;;;5000754;28;20261;-76
2022/08/26 11:56:42;;;;;;;15.50;4.22;;;28.30;99.90;;;;;;5008672;28;20242;-71
2022/08/26 11:59:11;;;;;;;11.23;4.10;;;27.90;99.90;;;;;;5005895;28;20267;-70
2022/08/26 12:01:40;;;;;;;9.45;4.28;;;27.70;99.90;;;;;;5007521;28;20217;-71
2022/08/26 12:04:16;;;;;;;10.38;4.25;;;27.60;99.90;;;;;;5008648;28;20205;-71
2022/08/26 12:06:47;;;;;;;7.45;3.72;;;27.50;99.90;;;;;;4999134;28;20177;-70
2022/08/26 12:09:23;;;;;;;7.95;4.22;;;27.20;99.90;;;;;;4986498;28;20190;-70
2022/08/26 12:11:49;;;;;;;9.75;4.30;;;26.70;99.90;;;;;;4982823;28;20210;-71
2022/08/26 12:14:23;;;;;;;9.45;4.28;;;26.60;99.90;;;;;;4998375;28;20224;-71
2022/08/26 12:16:48;;;;;;;9.38;4.10;;;26.60;99.90;;;;;;5005200;28;20208;-71
2022/08/26 12:19:29;;;;;;;7.63;4.35;;;26.70;99.90;;;;;;5003344;28;20209;-71
2022/08/26 12:22:05;;;;;;;10.43;5.70;;;26.80;99.90;;;;;;5003547;28;20628;-70
2022/08/26 12:24:30;;;;;;;8.57;4.88;;;26.90;99.90;;;;;;4982593;28;20240;-71
2022/08/26 12:27:19;;;;;;;9.00;4.95;;;26.80;99.90;;;;;;5001798;28;20202;-70
2022/08/26 12:29:59;;;;;;;6.85;4.85;;;26.60;99.90;;;;;;5000889;28;20245;-70
2022/08/26 12:32:27;;;;;;;8.07;4.50;;;26.60;99.90;;;;;;5003317;28;20212;-70
2022/08/26 12:34:53;;;;;;;10.57;4.95;;;26.60;99.90;;;;;;4999954;28;20215;-71
2022/08/26 12:37:19;;;;;;;9.23;5.97;;;26.60;99.90;;;;;;5006154;28;20654;-70
2022/08/26 12:39:46;;;;;;;9.50;3.78;;;26.40;99.90;;;;;;5002967;28;20258;-71
2022/08/26 12:42:12;;;;;;;8.00;4.50;;;26.30;99.90;;;;;;5005094;28;20207;-70
2022/08/26 12:45:05;;;;;;;5.50;3.60;;;26.10;99.90;;;;;;4986719;28;20587;-70
2022/08/26 12:47:44;;;;;;;7.18;4.25;;;26.10;99.90;;;;;;4997838;28;20720;-71
2022/08/26 12:50:10;;;;;;;8.52;4.20;;;25.80;99.90;;;;;;5003716;28;20213;-70
2022/08/26 12:52:49;;;;;;;5.68;4.10;;;25.70;99.90;;;;;;4997342;28;20201;-71
2022/08/26 12:55:23;;;;;;;6.93;4.00;;;25.70;99.90;;;;;;5002480;28;20786;-70